Time;durP1;ratioP1;P1;durP2;ratioP2;P2;SDS_P1;SDS_P2;PMS_P1;PMS_P2;Temp;Humidity;BMP_temperature;BMP_pressure;BME280_temperature;BME280_humidity;BME280_pressure;Samples;Min_cycle;Max_cycle;Signal;HPM_P1;HPM_P2
2023/01/14 00:02:01;;;;;;;27.23;1.92;;;6.90;99.90;;;;;;5059183;28;20048;-78
2023/01/14 00:04:27;;;;;;;29.67;3.45;;;6.90;99.90;;;;;;5075056;28;20132;-79
2023/01/14 00:06:53;;;;;;;27.92;2.20;;;6.90;99.90;;;;;;5076009;28;20048;-79
2023/01/14 00:09:18;;;;;;;23.88;1.90;;;7.00;99.90;;;;;;5075880;28;20037;-79
2023/01/14 00:11:47;;;;;;;29.58;2.17;;;7.00;99.90;;;;;;5075360;28;20378;-81
2023/01/14 00:14:18;;;;;;;17.02;1.38;;;7.10;99.90;;;;;;5075404;28;20511;-79
2023/01/14 00:16:45;;;;;;;17.67;2.13;;;7.00;99.90;;;;;;5074125;28;20048;-80
2023/01/14 00:19:11;;;;;;;29.52;2.38;;;7.00;99.90;;;;;;5075021;28;20045;-78
2023/01/14 00:21:37;;;;;;;18.95;1.45;;;6.80;99.90;;;;;;5075566;28;20119;-80
2023/01/14 00:24:04;;;;;;;25.33;1.65;;;6.80;99.90;;;;;;5074635;28;20485;-79
2023/01/14 00:26:30;;;;;;;28.77;2.13;;;6.80;99.90;;;;;;5074948;28;20427;-81
2023/01/14 00:28:56;;;;;;;20.33;2.20;;;6.80;99.90;;;;;;5074932;28;20052;-80
2023/01/14 00:31:25;;;;;;;25.75;1.75;;;6.80;99.90;;;;;;5073857;28;20110;-79
2023/01/14 00:33:50;;;;;;;22.88;1.63;;;6.80;99.90;;;;;;5074805;28;20047;-79
2023/01/14 00:36:18;;;;;;;23.52;1.90;;;6.70;99.90;;;;;;5057360;28;20044;-79
2023/01/14 00:38:44;;;;;;;27.58;2.22;;;6.70;99.90;;;;;;5074596;28;20048;-80
2023/01/14 00:41:32;;;;;;;22.25;1.60;;;6.70;99.90;;;;;;5073817;28;20036;-79
2023/01/14 00:43:59;;;;;;;24.00;2.08;;;6.70;99.90;;;;;;5074428;28;20053;-79
2023/01/14 00:46:29;;;;;;;;;;;6.60;99.90;;;;;;5073997;28;20059;-75
2023/01/14 00:48:55;;;;;;;17.48;2.00;;;6.60;99.90;;;;;;5073233;28;19920;-80
2023/01/14 00:51:21;;;;;;;26.73;2.15;;;6.50;99.90;;;;;;5074368;28;20044;-79
2023/01/14 00:53:47;;;;;;;25.75;2.40;;;6.60;99.90;;;;;;5074329;28;20084;-79
2023/01/14 00:56:14;;;;;;;23.27;3.20;;;6.60;99.90;;;;;;5073278;28;20091;-77
2023/01/14 00:58:40;;;;;;;30.13;2.78;;;6.70;99.90;;;;;;5074929;28;20048;-78
2023/01/14 01:01:06;;;;;;;28.85;3.28;;;6.70;99.90;;;;;;5073262;28;20493;-79
2023/01/14 01:03:36;;;;;;;30.83;2.53;;;6.80;99.90;;;;;;5072958;28;20041;-78
2023/01/14 01:06:02;;;;;;;29.13;1.83;;;6.80;99.90;;;;;;5074143;28;20505;-78
2023/01/14 01:08:28;;;;;;;24.45;2.05;;;6.90;99.90;;;;;;5073570;28;20179;-80
2023/01/14 01:10:54;;;;;;;39.92;2.80;;;6.90;99.90;;;;;;5074080;28;20040;-79
2023/01/14 01:13:22;;;;;;;23.83;2.55;;;6.90;99.90;;;;;;5073914;28;20055;-79
2023/01/14 01:15:49;;;;;;;26.63;2.17;;;7.00;99.90;;;;;;5073889;28;20044;-81
2023/01/14 01:18:15;;;;;;;20.67;1.88;;;6.90;99.90;;;;;;5073914;28;20106;-79
2023/01/14 01:20:42;;;;;;;30.70;2.15;;;7.00;99.90;;;;;;5073845;28;20080;-79
2023/01/14 01:23:11;;;;;;;35.50;2.65;;;7.00;99.90;;;;;;5073957;28;20051;-79
2023/01/14 01:25:36;;;;;;;34.17;3.70;;;7.00;99.90;;;;;;5073842;28;20044;-79
2023/01/14 01:28:03;;;;;;;32.25;2.22;;;7.00;99.90;;;;;;5074453;28;20131;-78
2023/01/14 01:30:28;;;;;;;35.42;2.58;;;7.00;99.90;;;;;;5073701;28;20366;-79
2023/01/14 01:32:54;;;;;;;26.95;1.88;;;7.00;99.90;;;;;;5073750;28;20043;-78
2023/01/14 01:35:21;;;;;;;27.40;2.08;;;7.00;99.90;;;;;;5073842;28;20087;-78
2023/01/14 01:37:47;;;;;;;34.65;3.35;;;7.00;99.90;;;;;;5073660;28;20074;-79
2023/01/14 01:40:13;;;;;;;34.63;2.33;;;7.00;99.90;;;;;;5072812;28;20078;-79
2023/01/14 01:42:57;;;;;;;25.63;2.90;;;6.90;99.90;;;;;;5074110;28;20385;-79
2023/01/14 01:45:38;;;;;;;28.25;3.13;;;7.00;99.90;;;;;;5056688;28;20060;-80
2023/01/14 01:48:09;;;;;;;25.55;1.90;;;7.00;99.90;;;;;;5073967;28;20088;-80
2023/01/14 01:50:35;;;;;;;31.65;2.30;;;7.00;99.90;;;;;;5074701;28;20044;-77
2023/01/14 01:53:02;;;;;;;30.95;1.95;;;7.00;99.90;;;;;;5074238;28;20127;-78
2023/01/14 01:55:32;;;;;;;43.80;3.08;;;7.00;99.90;;;;;;5072718;28;20127;-78
2023/01/14 01:57:58;;;;;;;46.15;2.63;;;7.00;99.90;;;;;;5071879;28;20055;-71
2023/01/14 02:00:26;;;;;;;38.80;2.67;;;7.00;99.90;;;;;;5072144;28;20040;-71
2023/01/14 02:02:57;;;;;;;25.20;1.73;;;7.00;99.90;;;;;;5073242;28;20088;-71
2023/01/14 02:05:23;;;;;;;30.08;2.20;;;7.00;99.90;;;;;;5072037;28;20059;-71
2023/01/14 02:07:49;;;;;;;46.50;4.47;;;7.10;99.90;;;;;;5073243;28;20084;-72
2023/01/14 02:10:15;;;;;;;32.30;1.67;;;7.00;99.90;;;;;;5074042;28;20140;-71
2023/01/14 02:13:07;;;;;;;39.37;2.60;;;7.10;99.90;;;;;;5073238;28;20044;-71
2023/01/14 02:15:55;;;;;;;41.08;2.78;;;7.10;99.90;;;;;;5073332;28;20071;-70
2023/01/14 02:18:32;;;;;;;27.80;2.95;;;7.10;99.90;;;;;;5074431;28;20045;-71
2023/01/14 02:21:08;;;;;;;26.98;1.85;;;7.10;99.90;;;;;;5077351;28;20127;-71
2023/01/14 02:23:57;;;;;;;29.27;2.30;;;7.10;99.90;;;;;;5075976;28;20044;-72
2023/01/14 02:26:35;;;;;;;27.73;2.00;;;7.10;99.90;;;;;;5076058;28;20060;-71
2023/01/14 02:29:45;;;;;;;39.95;3.35;;;7.10;99.90;;;;;;5059624;28;20051;-71
2023/01/14 02:32:33;;;;;;;31.00;2.63;;;7.10;99.90;;;;;;5054658;28;20052;-71
2023/01/14 02:35:32;;;;;;;34.25;2.55;;;7.10;99.90;;;;;;5054556;28;20128;-71
2023/01/14 02:38:04;;;;;;;30.52;2.65;;;7.00;99.90;;;;;;5073924;28;20059;-71
2023/01/14 02:40:34;;;;;;;21.95;1.63;;;7.00;99.90;;;;;;5076853;28;20098;-71
2023/01/14 02:46:20;;;;;;;29.60;2.05;;;6.90;99.90;;;;;;5076718;28;20052;-71
2023/01/14 02:48:47;;;;;;;29.35;3.85;;;6.90;99.90;;;;;;5075977;28;20051;-71
2023/01/14 02:51:14;;;;;;;40.08;2.63;;;6.80;99.90;;;;;;5076449;28;20384;-70
2023/01/14 02:53:39;;;;;;;29.15;2.28;;;6.90;99.90;;;;;;5076575;28;20041;-71
2023/01/14 02:56:05;;;;;;;34.55;2.88;;;6.80;99.90;;;;;;5076447;28;20042;-70
2023/01/14 02:58:31;;;;;;;33.78;1.80;;;6.80;99.90;;;;;;5076449;28;20087;-71
2023/01/14 03:01:22;;;;;;;28.02;2.13;;;6.80;99.90;;;;;;5076334;28;20122;-71
2023/01/14 03:04:10;;;;;;;35.75;2.15;;;6.70;99.90;;;;;;5076243;28;20133;-71
2023/01/14 03:06:47;;;;;;;44.45;6.20;;;6.60;99.90;;;;;;5076174;28;20041;-70
2023/01/14 03:09:33;;;;;;;24.52;2.38;;;6.40;99.90;;;;;;5077166;28;20044;-70
2023/01/14 03:12:15;;;;;;;23.65;1.63;;;6.30;99.90;;;;;;5076218;28;20065;-71
2023/01/14 03:15:13;;;;;;;33.90;2.55;;;6.20;99.90;;;;;;5074824;28;20060;-70
2023/01/14 03:17:44;;;;;;;25.67;1.77;;;6.20;99.90;;;;;;5060885;28;20056;-71
2023/01/14 03:20:19;;;;;;;33.85;3.20;;;6.10;99.90;;;;;;5076548;28;20045;-70
2023/01/14 03:22:48;;;;;;;26.33;1.77;;;6.00;99.90;;;;;;5075974;28;20102;-72
2023/01/14 03:25:16;;;;;;;29.58;3.05;;;6.00;99.90;;;;;;5074772;28;20059;-71
2023/01/14 03:27:45;;;;;;;25.45;2.33;;;5.90;99.90;;;;;;5058494;28;20088;-71
2023/01/14 03:30:19;;;;;;;32.83;2.40;;;5.90;99.90;;;;;;5073562;28;20149;-72
2023/01/14 03:32:53;;;;;;;29.40;2.65;;;5.80;99.90;;;;;;5076259;28;20048;-71
2023/01/14 03:35:26;;;;;;;29.50;4.93;;;5.80;99.90;;;;;;5076457;28;20045;-71
2023/01/14 03:38:06;;;;;;;32.92;1.98;;;5.80;99.90;;;;;;5108308;28;20044;-72
2023/01/14 03:40:36;;;;;;;37.45;2.40;;;5.80;99.90;;;;;;5075581;28;20119;-71
2023/01/14 03:43:25;;;;;;;26.80;1.90;;;5.80;99.90;;;;;;5075546;28;20404;-72
2023/01/14 03:45:51;;;;;;;21.60;1.75;;;5.80;99.90;;;;;;5075904;28;20044;-72
2023/01/14 03:48:17;;;;;;;41.80;2.97;;;5.80;99.90;;;;;;5075602;28;20044;-72
2023/01/14 03:50:54;;;;;;;23.42;2.03;;;5.70;99.90;;;;;;5074401;28;20393;-71
2023/01/14 03:53:24;;;;;;;25.77;2.53;;;5.70;99.90;;;;;;5075764;28;20036;-71
2023/01/14 03:56:10;;;;;;;30.08;1.67;;;5.70;99.90;;;;;;5057734;28;20087;-73
2023/01/14 03:58:39;;;;;;;23.45;2.83;;;5.70;99.90;;;;;;5075090;28;20481;-71
2023/01/14 04:01:19;;;;;;;31.05;2.35;;;5.60;99.90;;;;;;5108171;28;20059;-72
2023/01/14 04:03:46;;;;;;;27.25;2.08;;;5.60;99.90;;;;;;5074643;28;20044;-71
2023/01/14 04:06:13;;;;;;;29.02;2.35;;;5.60;99.90;;;;;;5074837;28;20052;-71
2023/01/14 04:08:39;;;;;;;40.28;2.47;;;5.60;99.90;;;;;;5076039;28;20098;-71
2023/01/14 04:11:05;;;;;;;23.30;2.58;;;5.70;99.90;;;;;;5073974;28;20500;-72
2023/01/14 04:16:15;;;;;;;31.80;2.55;;;5.60;99.90;;;;;;5074845;28;20048;-72
2023/01/14 04:18:40;;;;;;;37.88;3.67;;;5.60;99.90;;;;;;5074584;28;20045;-70
2023/01/14 04:21:06;;;;;;;34.88;3.42;;;5.60;99.90;;;;;;5074895;28;20051;-71
2023/01/14 04:23:32;;;;;;;34.78;3.35;;;5.70;99.90;;;;;;5074550;28;20084;-71
2023/01/14 04:25:59;;;;;;;43.70;4.22;;;5.60;99.90;;;;;;5057007;28;20094;-71
2023/01/14 04:28:26;;;;;;;37.05;3.25;;;5.60;99.90;;;;;;5057464;28;20438;-69
2023/01/14 04:30:52;;;;;;;32.60;2.42;;;5.60;99.90;;;;;;5073595;28;20109;-70
2023/01/14 04:33:18;;;;;;;30.88;3.22;;;5.60;99.90;;;;;;5074371;28;20044;-71
2023/01/14 04:35:48;;;;;;;27.73;2.88;;;5.70;99.90;;;;;;5074724;28;20045;-71
2023/01/14 04:38:15;;;;;;;29.30;4.38;;;5.60;99.90;;;;;;5074550;28;20071;-71
2023/01/14 04:40:41;;;;;;;39.92;4.53;;;5.60;99.90;;;;;;5074381;28;20075;-71
2023/01/14 04:43:07;;;;;;;32.53;3.38;;;5.60;99.90;;;;;;5072768;28;20404;-71
2023/01/14 04:45:33;;;;;;;43.90;3.53;;;5.50;99.90;;;;;;5074001;28;20483;-71
2023/01/14 04:47:59;;;;;;;38.75;4.18;;;5.50;99.90;;;;;;5107199;28;20298;-71
2023/01/14 04:50:30;;;;;;;35.40;3.88;;;5.50;99.90;;;;;;5073109;28;20170;-71
2023/01/14 04:53:02;;;;;;;39.45;4.57;;;5.50;99.90;;;;;;5074341;28;20044;-71
2023/01/14 04:55:28;;;;;;;45.05;4.35;;;5.60;99.90;;;;;;5074891;28;20048;-71
2023/01/14 04:57:54;;;;;;;42.80;4.40;;;5.60;99.90;;;;;;5074243;28;20143;-72
2023/01/14 05:00:20;;;;;;;29.77;3.13;;;5.60;99.90;;;;;;5074107;28;20044;-71
2023/01/14 05:02:45;;;;;;;35.30;3.92;;;5.60;99.90;;;;;;5073066;28;20435;-71
2023/01/14 05:05:11;;;;;;;34.13;3.75;;;5.60;99.90;;;;;;5074002;28;20056;-71
2023/01/14 05:07:37;;;;;;;38.70;4.28;;;5.60;99.90;;;;;;5074050;28;20048;-71
2023/01/14 05:10:03;;;;;;;40.80;3.92;;;5.50;99.90;;;;;;5072715;28;20074;-70
2023/01/14 05:12:28;;;;;;;35.13;3.55;;;5.50;99.90;;;;;;5072774;28;20056;-72
2023/01/14 05:14:54;;;;;;;47.63;3.72;;;5.60;99.90;;;;;;5073542;28;20061;-71
2023/01/14 05:17:20;;;;;;;36.22;3.90;;;5.50;99.90;;;;;;5072875;28;20052;-70
2023/01/14 05:19:45;;;;;;;40.05;4.72;;;5.50;99.90;;;;;;5056801;28;20049;-71
2023/01/14 05:22:11;;;;;;;43.88;4.70;;;5.50;99.90;;;;;;5073173;28;20385;-71
2023/01/14 05:24:37;;;;;;;40.72;4.53;;;5.40;99.90;;;;;;5074809;28;20056;-72
2023/01/14 05:27:02;;;;;;;35.00;4.03;;;5.50;99.90;;;;;;5073716;28;20044;-72
2023/01/14 05:29:28;;;;;;;44.80;4.82;;;5.50;99.90;;;;;;5073773;28;20047;-71
2023/01/14 05:31:54;;;;;;;43.45;4.18;;;5.50;99.90;;;;;;5072516;28;20109;-71
2023/01/14 05:34:20;;;;;;;31.15;4.88;;;5.40;99.90;;;;;;5073610;28;20094;-72
2023/01/14 05:36:45;;;;;;;37.13;5.03;;;5.40;99.90;;;;;;5072477;28;20044;-70
2023/01/14 05:39:11;;;;;;;53.45;6.85;;;5.40;99.90;;;;;;5072288;28;20048;-70
2023/01/14 05:45:37;;;;;;;46.60;4.53;;;5.40;99.90;;;;;;5073334;28;20037;-72
2023/01/14 05:47:06;;;;;;;52.35;7.13;;;5.40;99.90;;;;;;5072389;28;20045;-71
2023/01/14 05:49:32;;;;;;;43.05;6.90;;;5.40;99.90;;;;;;5056079;28;20127;-71
2023/01/14 05:51:58;;;;;;;60.03;6.15;;;5.40;99.90;;;;;;5073474;28;20049;-71
2023/01/14 05:54:23;;;;;;;55.40;5.80;;;5.40;99.90;;;;;;5071707;28;20044;-71
2023/01/14 05:56:49;;;;;;;57.20;6.78;;;5.40;99.90;;;;;;5073112;28;20397;-73
2023/01/14 05:59:15;;;;;;;58.05;6.43;;;5.40;99.90;;;;;;5072424;28;20087;-71
2023/01/14 06:07:09;;;;;;;46.53;6.10;;;5.50;99.90;;;;;;5072376;28;20044;-72
2023/01/14 06:09:35;;;;;;;59.13;6.32;;;5.50;99.90;;;;;;5073223;28;20040;-71
2023/01/14 06:12:04;;;;;;;51.28;6.15;;;5.50;99.90;;;;;;5073381;28;20048;-71
2023/01/14 06:14:33;;;;;;;52.85;6.00;;;5.50;99.90;;;;;;5073325;28;20123;-70
2023/01/14 06:17:04;;;;;;;61.58;5.75;;;5.50;99.90;;;;;;5073044;28;20053;-72
2023/01/14 06:19:30;;;;;;;68.47;5.90;;;5.50;99.90;;;;;;5073062;28;20045;-71
2023/01/14 06:21:56;;;;;;;66.28;6.00;;;5.50;99.90;;;;;;5072218;28;20424;-71
2023/01/14 06:24:22;;;;;;;54.72;6.47;;;5.60;99.90;;;;;;5055124;28;20044;-72
2023/01/14 06:26:47;;;;;;;63.75;6.38;;;5.60;99.90;;;;;;5073979;28;20052;-71
2023/01/14 06:29:13;;;;;;;65.75;6.80;;;5.50;99.90;;;;;;5073051;28;20044;-71
2023/01/14 06:31:40;;;;;;;56.05;6.00;;;5.60;99.90;;;;;;5073096;28;20432;-71
2023/01/14 06:34:06;;;;;;;47.63;5.32;;;5.60;99.90;;;;;;5073057;28;20453;-72
2023/01/14 06:36:34;;;;;;;56.58;6.90;;;5.60;99.90;;;;;;5073019;28;20087;-72
2023/01/14 06:39:01;;;;;;;61.50;6.18;;;5.60;99.90;;;;;;5072997;28;20049;-72
2023/01/14 06:41:27;;;;;;;;;;;5.60;99.90;;;;;;5073323;28;20413;-72
2023/01/14 06:43:52;;;;;;;59.60;6.33;;;5.70;99.90;;;;;;5072952;28;19924;-71
2023/01/14 06:46:18;;;;;;;51.60;5.43;;;5.70;99.90;;;;;;5071938;28;20048;-70
2023/01/14 06:48:45;;;;;;;46.83;5.03;;;5.70;99.90;;;;;;5072895;28;20110;-71
2023/01/14 06:51:16;;;;;;;49.00;6.47;;;5.80;99.90;;;;;;5071477;28;20049;-71
2023/01/14 06:53:42;;;;;;;53.25;6.90;;;5.80;99.90;;;;;;5071901;28;20079;-72
2023/01/14 06:56:11;;;;;;;57.30;5.88;;;5.80;99.90;;;;;;5072966;28;20095;-72
2023/01/14 06:58:38;;;;;;;46.58;5.90;;;5.80;99.90;;;;;;5073095;28;20079;-73
2023/01/14 07:01:05;;;;;;;59.95;8.23;;;5.80;99.90;;;;;;5072809;28;20080;-69
2023/01/14 07:03:31;;;;;;;77.78;6.82;;;5.80;99.90;;;;;;5073433;28;20048;-70
2023/01/14 07:05:59;;;;;;;60.97;6.50;;;5.80;99.90;;;;;;5074761;28;20048;-70
2023/01/14 07:08:25;;;;;;;48.75;6.38;;;5.80;99.90;;;;;;5076283;28;20049;-70
2023/01/14 07:10:50;;;;;;;59.55;7.07;;;5.80;99.90;;;;;;5075315;28;20059;-70
2023/01/14 07:13:21;;;;;;;67.13;8.15;;;5.90;99.90;;;;;;5058308;28;20075;-72
2023/01/14 07:15:47;;;;;;;50.47;6.95;;;5.90;99.90;;;;;;5074556;28;20117;-71
2023/01/14 07:18:13;;;;;;;61.35;8.02;;;5.90;99.90;;;;;;5075191;28;20139;-71
2023/01/14 07:20:39;;;;;;;53.25;5.78;;;5.90;99.90;;;;;;5076036;28;20131;-71
2023/01/14 07:23:06;;;;;;;60.43;6.33;;;5.90;99.90;;;;;;5076051;28;20060;-71
2023/01/14 07:25:31;;;;;;;47.42;6.78;;;6.00;99.90;;;;;;5074823;28;20060;-71
2023/01/14 07:27:57;;;;;;;60.10;7.53;;;6.00;99.90;;;;;;5058370;28;20071;-72
2023/01/14 07:30:23;;;;;;;48.75;6.15;;;6.00;99.90;;;;;;5042422;28;20059;-72
2023/01/14 07:32:49;;;;;;;47.13;5.22;;;6.00;99.90;;;;;;5058535;28;20052;-71
2023/01/14 07:35:14;;;;;;;46.25;5.22;;;6.00;99.90;;;;;;5074450;28;20439;-71
2023/01/14 07:37:40;;;;;;;55.75;5.60;;;6.00;99.90;;;;;;5074537;28;20055;-71
2023/01/14 07:40:07;;;;;;;51.33;5.70;;;6.00;99.90;;;;;;5058233;28;20048;-72
2023/01/14 07:42:32;;;;;;;39.67;5.32;;;6.10;99.90;;;;;;5075641;28;20102;-71
2023/01/14 07:44:58;;;;;;;59.67;6.75;;;6.10;99.90;;;;;;5075770;28;20079;-71
2023/01/14 07:47:24;;;;;;;51.70;5.13;;;6.10;99.90;;;;;;5075673;28;20044;-72
2023/01/14 07:49:49;;;;;;;40.00;4.40;;;6.10;99.90;;;;;;5075005;28;20044;-72
2023/01/14 07:52:15;;;;;;;48.65;5.25;;;6.10;99.90;;;;;;5074165;28;20111;-70
2023/01/14 07:54:42;;;;;;;50.55;5.97;;;6.10;99.90;;;;;;5075432;28;20044;-71
2023/01/14 07:57:09;;;;;;;54.83;5.80;;;6.10;99.90;;;;;;5057848;28;20059;-70
2023/01/14 07:59:36;;;;;;;44.25;4.60;;;6.10;99.90;;;;;;5075361;28;20128;-71
2023/01/14 08:02:03;;;;;;;46.78;4.22;;;6.20;99.90;;;;;;5074142;28;20123;-71
2023/01/14 08:04:28;;;;;;;45.53;4.63;;;6.20;99.90;;;;;;5075709;28;20123;-72
2023/01/14 08:06:56;;;;;;;35.42;3.70;;;6.20;99.90;;;;;;5075304;28;20108;-71
2023/01/14 08:09:22;;;;;;;49.20;4.40;;;6.20;99.90;;;;;;5074019;28;20409;-69
2023/01/14 08:11:48;;;;;;;48.70;5.13;;;6.20;99.90;;;;;;5076055;28;20197;-69
2023/01/14 08:14:14;;;;;;;37.15;4.10;;;6.20;99.90;;;;;;5074946;28;20138;-70
2023/01/14 08:16:40;;;;;;;48.15;4.75;;;6.10;99.90;;;;;;5075298;28;20045;-71
2023/01/14 08:19:05;;;;;;;35.88;4.60;;;6.10;99.90;;;;;;5074036;28;20051;-71
2023/01/14 08:21:31;;;;;;;37.50;4.20;;;6.10;99.90;;;;;;5075143;28;20059;-72
2023/01/14 08:23:57;;;;;;;28.30;3.83;;;6.10;99.90;;;;;;5074869;28;20079;-71
2023/01/14 08:26:22;;;;;;;55.42;4.85;;;6.10;99.90;;;;;;5073733;28;20048;-71
2023/01/14 08:28:48;;;;;;;57.47;4.15;;;6.10;99.90;;;;;;5074295;28;20126;-71
2023/01/14 08:31:16;;;;;;;31.23;4.15;;;6.10;99.90;;;;;;5074583;28;20054;-71
2023/01/14 08:33:44;;;;;;;48.92;6.07;;;6.10;99.90;;;;;;5073501;28;20040;-71
2023/01/14 08:36:16;;;;;;;41.30;4.95;;;6.10;99.90;;;;;;5074652;28;20048;-71
2023/01/14 08:38:45;;;;;;;40.90;3.47;;;6.10;99.90;;;;;;5074564;28;20052;-70
2023/01/14 08:41:12;;;;;;;54.45;3.30;;;6.10;99.90;;;;;;5073278;28;20053;-71
2023/01/14 08:43:39;;;;;;;47.45;5.45;;;6.00;99.90;;;;;;5073248;28;20045;-70
2023/01/14 08:46:07;;;;;;;42.90;4.15;;;6.10;99.90;;;;;;5074240;28;20040;-71
2023/01/14 08:48:33;;;;;;;36.50;3.80;;;6.10;99.90;;;;;;5073411;28;20040;-71
2023/01/14 08:51:08;;;;;;;46.30;4.13;;;6.10;99.90;;;;;;5056647;28;20055;-71
2023/01/14 08:53:36;;;;;;;48.15;3.80;;;6.10;99.90;;;;;;5073243;28;20120;-71
2023/01/14 08:56:04;;;;;;;39.97;5.82;;;6.10;99.90;;;;;;5074634;28;20056;-71
2023/01/14 08:58:30;;;;;;;34.33;4.32;;;6.10;99.90;;;;;;5039999;28;20071;-69
2023/01/14 09:01:01;;;;;;;35.90;3.83;;;6.10;99.90;;;;;;5073059;28;20040;-71
2023/01/14 09:03:32;;;;;;;39.65;5.65;;;6.20;99.90;;;;;;5074106;28;20044;-71
2023/01/14 09:06:10;;;;;;;41.80;5.57;;;6.10;99.90;;;;;;5073439;28;20067;-71
2023/01/14 09:17:10;;;;;;;37.87;4.47;;;6.30;99.90;;;;;;5073006;28;20071;-71
2023/01/14 09:19:40;;;;;;;32.08;4.38;;;6.20;99.90;;;;;;5074081;28;20366;-70
2023/01/14 09:22:08;;;;;;;37.83;3.55;;;6.30;99.90;;;;;;5073104;28;20131;-69
2023/01/14 09:24:34;;;;;;;35.38;4.38;;;6.30;99.90;;;;;;5072429;28;20043;-71
2023/01/14 09:27:00;;;;;;;41.88;4.85;;;6.30;99.90;;;;;;5089801;28;20135;-72
2023/01/14 09:29:26;;;;;;;28.75;3.45;;;6.30;99.90;;;;;;5056329;28;20540;-71
2023/01/14 09:31:51;;;;;;;27.50;4.15;;;6.40;99.90;;;;;;5072611;28;20160;-70
2023/01/14 09:34:18;;;;;;;21.65;3.50;;;6.40;99.90;;;;;;5072424;28;20052;-70
2023/01/14 09:36:44;;;;;;;31.45;4.65;;;6.40;99.90;;;;;;5072432;28;20045;-70
2023/01/14 09:39:10;;;;;;;32.78;5.88;;;6.40;99.90;;;;;;5072589;28;20052;-70
2023/01/14 09:41:40;;;;;;;19.43;3.80;;;6.40;99.90;;;;;;5074074;28;20049;-71
2023/01/14 09:44:08;;;;;;;28.75;4.68;;;6.40;99.90;;;;;;5072599;28;20306;-72
2023/01/14 09:46:35;;;;;;;27.50;4.80;;;6.40;99.90;;;;;;5056167;28;20044;-71
2023/01/14 09:49:03;;;;;;;;;;;6.40;99.90;;;;;;5073957;28;20055;-70
2023/01/14 09:51:50;;;;;;;24.15;3.88;;;6.40;99.90;;;;;;5073468;28;19920;-69
2023/01/14 09:55:00;;;;;;;21.08;4.40;;;6.50;99.90;;;;;;5072389;28;20080;-70
2023/01/14 09:57:54;;;;;;;31.58;5.05;;;6.50;99.90;;;;;;5071055;28;20044;-70
2023/01/14 10:00:38;;;;;;;35.42;5.05;;;6.50;99.90;;;;;;5073314;28;20051;-69
2023/01/14 10:03:20;;;;;;;23.02;4.05;;;6.50;99.90;;;;;;5073523;28;20539;-69
2023/01/14 10:06:02;;;;;;;31.33;4.72;;;6.60;99.90;;;;;;5074150;28;20040;-70
2023/01/14 10:08:33;;;;;;;24.50;4.20;;;6.50;99.90;;;;;;5073011;28;20538;-69
2023/01/14 10:11:00;;;;;;;23.13;3.63;;;6.50;99.90;;;;;;5056374;28;20053;-70
2023/01/14 10:13:35;;;;;;;27.45;5.95;;;6.50;99.90;;;;;;5072256;28;20059;-69
2023/01/14 10:16:12;;;;;;;22.33;3.20;;;6.60;99.90;;;;;;5071769;28;20493;-70
2023/01/14 10:19:05;;;;;;;25.60;4.05;;;6.60;99.90;;;;;;5073030;28;20048;-69
2023/01/14 10:21:50;;;;;;;24.15;3.58;;;6.60;99.90;;;;;;5074045;28;20048;-70
2023/01/14 10:24:19;;;;;;;25.10;3.17;;;6.60;99.90;;;;;;5073719;28;20050;-69
2023/01/14 10:26:48;;;;;;;22.48;3.10;;;6.60;99.90;;;;;;5072371;28;20401;-69
2023/01/14 10:29:16;;;;;;;19.95;3.78;;;6.70;99.90;;;;;;5072132;28;20049;-68
2023/01/14 10:32:01;;;;;;;24.75;3.60;;;6.60;99.90;;;;;;5054980;28;20063;-69
2023/01/14 10:34:44;;;;;;;25.17;4.13;;;6.70;99.90;;;;;;5055632;28;20477;-69
2023/01/14 10:37:10;;;;;;;26.10;4.28;;;6.70;99.90;;;;;;5073848;28;20044;-68
2023/01/14 10:39:41;;;;;;;19.77;3.30;;;6.70;99.90;;;;;;5074523;28;20053;-69
2023/01/14 10:42:11;;;;;;;22.75;3.65;;;6.70;99.90;;;;;;5076818;28;20040;-69
2023/01/14 10:44:43;;;;;;;24.20;4.10;;;6.70;99.90;;;;;;5110187;28;20067;-69
2023/01/14 10:47:18;;;;;;;27.50;4.95;;;6.80;99.90;;;;;;5076463;28;20048;-69
2023/01/14 10:49:47;;;;;;;18.55;3.83;;;6.90;99.90;;;;;;5075449;28;20053;-69
2023/01/14 10:52:27;;;;;;;20.83;3.72;;;6.80;99.90;;;;;;5076932;28;20357;-69
2023/01/14 10:55:01;;;;;;;27.13;3.83;;;6.90;99.90;;;;;;5075311;28;20049;-68
2023/01/14 10:57:34;;;;;;;20.15;5.50;;;6.90;99.90;;;;;;5076613;28;20040;-68
2023/01/14 11:00:01;;;;;;;22.67;4.00;;;7.00;99.90;;;;;;5075418;28;20476;-70
2023/01/14 11:02:35;;;;;;;19.52;5.03;;;7.00;99.90;;;;;;5075392;28;20056;-69
2023/01/14 11:05:04;;;;;;;23.35;3.85;;;7.00;99.90;;;;;;5075666;28;20365;-70
2023/01/14 11:07:38;;;;;;;22.60;3.83;;;7.10;99.90;;;;;;5077196;28;20044;-68
2023/01/14 11:10:18;;;;;;;23.45;3.85;;;7.10;99.90;;;;;;5077080;28;20049;-69
2023/01/14 11:12:43;;;;;;;24.88;4.35;;;7.10;99.90;;;;;;5076179;28;20056;-69
2023/01/14 11:15:36;;;;;;;22.02;4.28;;;7.10;99.90;;;;;;5058360;28;20053;-70
2023/01/14 11:18:21;;;;;;;16.75;3.40;;;7.10;99.90;;;;;;5076021;28;20052;-69
2023/01/14 11:20:53;;;;;;;19.25;3.55;;;7.10;99.90;;;;;;5058174;28;20055;-69
2023/01/14 11:23:29;;;;;;;13.38;3.60;;;7.10;99.90;;;;;;5058271;28;20045;-70
2023/01/14 11:26:04;;;;;;;19.83;3.90;;;7.10;99.90;;;;;;5075236;28;20477;-70
2023/01/14 11:28:30;;;;;;;21.27;3.30;;;7.10;99.90;;;;;;5075767;28;20040;-67
2023/01/14 11:30:57;;;;;;;17.52;3.13;;;7.10;99.90;;;;;;5075872;28;20062;-68
2023/01/14 11:33:25;;;;;;;;;;;7.10;99.90;;;;;;5075144;28;20048;-70
2023/01/14 11:35:54;;;;;;;15.02;2.95;;;7.10;99.90;;;;;;5074486;28;19969;-69
2023/01/14 11:38:23;;;;;;;22.23;3.38;;;7.20;99.90;;;;;;5075777;28;20040;-69
2023/01/14 11:43:52;;;;;;;20.15;3.03;;;7.20;99.90;;;;;;5060962;28;20553;-69
2023/01/14 11:46:18;;;;;;;16.83;3.15;;;7.20;99.90;;;;;;5075755;28;20040;-70
2023/01/14 11:49:02;;;;;;;15.40;2.67;;;7.30;99.90;;;;;;5075849;28;20044;-69
2023/01/14 11:51:29;;;;;;;18.15;3.40;;;7.30;99.90;;;;;;5074588;28;20094;-69
2023/01/14 11:53:56;;;;;;;18.80;3.03;;;7.30;99.90;;;;;;5075436;28;20040;-68
2023/01/14 11:56:35;;;;;;;10.40;2.78;;;7.30;99.90;;;;;;5058432;28;20477;-70
2023/01/14 11:59:11;;;;;;;19.42;3.67;;;7.30;99.90;;;;;;5075266;28;20106;-69
2023/01/14 12:01:42;;;;;;;16.87;3.47;;;7.40;99.90;;;;;;5075735;28;20052;-69
2023/01/14 12:04:18;;;;;;;9.98;2.67;;;7.40;99.90;;;;;;5074147;28;20075;-68
2023/01/14 12:06:58;;;;;;;18.08;3.25;;;7.40;99.90;;;;;;5075655;28;20119;-69
2023/01/14 12:09:49;;;;;;;14.18;3.42;;;7.40;99.90;;;;;;5075050;28;20048;-70
2023/01/14 12:12:20;;;;;;;24.70;3.38;;;7.50;99.90;;;;;;5107971;28;20123;-70
2023/01/14 12:17:49;;;;;;;11.30;3.20;;;7.60;99.90;;;;;;5075089;28;20048;-69
2023/01/14 12:20:21;;;;;;;11.32;2.60;;;7.60;99.90;;;;;;5073934;28;20056;-69
2023/01/14 12:23:08;;;;;;;13.10;2.65;;;7.60;99.90;;;;;;5075708;28;20075;-69
2023/01/14 12:25:44;;;;;;;13.63;3.08;;;7.70;99.90;;;;;;5074967;28;20055;-70
2023/01/14 12:28:18;;;;;;;11.15;2.45;;;7.70;99.90;;;;;;5073926;28;20045;-69
2023/01/14 12:31:03;;;;;;;14.27;3.92;;;7.80;99.90;;;;;;5073864;28;20102;-69
2023/01/14 12:33:32;;;;;;;12.30;3.05;;;7.80;99.90;;;;;;5075616;28;20053;-69
2023/01/14 12:36:23;;;;;;;14.38;3.25;;;7.90;99.90;;;;;;5075418;28;20432;-70
2023/01/14 12:47:41;;;;;;;10.52;2.75;;;8.10;99.90;;;;;;5074464;28;20400;-68
2023/01/14 12:50:09;;;;;;;8.35;1.92;;;8.10;99.90;;;;;;5073093;28;20397;-70
2023/01/14 12:52:38;;;;;;;7.85;1.95;;;8.20;99.90;;;;;;5056454;28;20558;-69
2023/01/14 12:55:06;;;;;;;9.82;1.70;;;8.30;99.90;;;;;;5073517;28;20166;-70
2023/01/14 12:57:36;;;;;;;10.98;2.20;;;8.30;99.90;;;;;;5074261;28;20062;-68
2023/01/14 13:00:11;;;;;;;10.27;1.95;;;8.30;99.90;;;;;;5073091;28;20044;-69
2023/01/14 13:02:40;;;;;;;12.70;1.70;;;8.30;99.90;;;;;;5073059;28;20518;-68
2023/01/14 13:05:10;;;;;;;11.70;1.73;;;8.30;99.90;;;;;;5072750;28;20098;-68
2023/01/14 13:07:47;;;;;;;10.95;1.85;;;8.40;99.90;;;;;;5073064;28;20045;-68
2023/01/14 13:10:28;;;;;;;10.10;1.67;;;8.40;99.90;;;;;;5073873;28;20385;-69
2023/01/14 13:12:55;;;;;;;12.35;1.73;;;8.50;99.90;;;;;;5056663;28;20048;-68
2023/01/14 13:15:33;;;;;;;10.75;1.20;;;8.50;99.90;;;;;;5074373;28;20083;-69
2023/01/14 13:18:03;;;;;;;5.68;1.70;;;8.50;99.90;;;;;;5039867;28;20087;-72
2023/01/14 13:20:29;;;;;;;9.13;1.58;;;8.60;99.90;;;;;;5056101;28;20044;-69
2023/01/14 13:22:57;;;;;;;6.00;1.33;;;8.60;99.90;;;;;;5073834;28;20044;-69
2023/01/14 13:25:45;;;;;;;7.13;1.67;;;8.60;99.90;;;;;;5057344;28;20044;-69
2023/01/14 13:28:11;;;;;;;6.80;1.33;;;8.70;99.90;;;;;;5073399;28;20408;-69
2023/01/14 13:31:20;;;;;;;5.28;1.25;;;8.70;99.90;;;;;;5074715;28;20127;-70
2023/01/14 13:34:12;;;;;;;10.85;2.03;;;8.70;99.90;;;;;;5034450;28;20040;-69
2023/01/14 13:36:38;;;;;;;9.48;1.75;;;8.70;99.90;;;;;;5073068;28;20052;-69
2023/01/14 13:39:06;;;;;;;7.53;1.58;;;8.80;99.90;;;;;;5074290;28;20053;-70
2023/01/14 13:41:38;;;;;;;4.10;1.25;;;8.80;99.90;;;;;;5073614;28;20102;-69
2023/01/14 13:44:14;;;;;;;6.35;1.52;;;8.80;99.90;;;;;;5073106;28;20040;-70